SKBOSKCL

Guest
Details From SKBO - Eldorado Intl
To SKCL - Alfonso Bonilla Aragon Intl
Flight Number -
Tags Generated
Created
Modified
Stats Distance 150 nm / 279 km
Max Altitude 0 ft / 0 m
Waypoints 2
Social Downloads 7
Likes 0
Share VATSIM

Download

Looking for another format? Having issues loading an existing format? Contact us
Advertisement - Login to hide

Notes

Generated

Route

SKBO SKCL

ID Type Via Altitude (ft/m) Position (lat/lon) Dist (leg/tot) Name
O SKBO APT - 0 / 0 4.71050 / -74.16917 - / 0 nm
O SKCL APT - 0 / 0 3.52990 / -76.38392 150 / 150 nm

Altitude Profile

Advertisement - Login to hide

SKBO

Details ICAO SKBO (BOG)
Name El Dorado Int'l
Region Colombia
Timezone America/Bogota (UTC-5.0)
Stats Elevation 8,359 ft / 2,548 m (AMSL)
Location 4.701620° -74.147000°
Runways 2
Magnetic Variation 7.410° W

METAR

SKBO 100000Z VRB02KT 9999 SCT017 SCT200 12/10 A3032

Decode

TAF

Not found

Departure Runways

ID Width Length Bearing (true/mag) Surface Threshold Overrun Markings Lighting
13L 148 ft / 45 m 12,479 ft / 3,804 m 127.19° / 134.60° ASPHALT 0 ft / 0 m 0 ft / 0 m PREC-APP CENTERLINE EDGE THRESHOLD ALSF-I TDZ
13R 148 ft / 45 m 12,479 ft / 3,804 m 127.20° / 134.61° ASPHALT 0 ft / 0 m 203 ft / 62 m PREC-APP CENTERLINE EDGE THRESHOLD ALSF-II TDZ
31L 148 ft / 45 m 12,479 ft / 3,804 m 307.20° / 314.61° ASPHALT 0 ft / 0 m 187 ft / 57 m PREC-APP CENTERLINE EDGE THRESHOLD ALSF-II TDZ REIL-OMNI
31R 148 ft / 45 m 12,479 ft / 3,804 m 307.19° / 314.60° ASPHALT 0 ft / 0 m 85 ft / 26 m PREC-APP CENTERLINE EDGE THRESHOLD ALSF-I TDZ

SKCL

Details ICAO SKCL (CLO)
Name Alfonso B. Aragon
Region Colombia
Timezone America/Bogota (UTC-5.0)
Stats Elevation 3,162 ft / 964 m (AMSL)
Location 3.543220° -76.381600°
Runways 1
Magnetic Variation 5.731° W

METAR

SKCL 100000Z 32008KT 9999 FEW030 SCT150 25/18 A2991

Decode

TAF

Not found

Destination Runways

ID Width Length Bearing (true/mag) Surface Threshold Overrun Markings Lighting
02 148 ft / 45 m 9,852 ft / 3,003 m 9.91° / 15.64° ASPHALT 0 ft / 0 m 0 ft / 0 m PREC-APP CENTERLINE EDGE THRESHOLD ALSF-I
20 148 ft / 45 m 9,852 ft / 3,003 m 189.91° / 195.64° ASPHALT 0 ft / 0 m 82 ft / 25 m PREC-APP CENTERLINE EDGE THRESHOLD ALSF-I

Approach Navaids

Runway Type Ident Frequency Range Bearing (true/mag) Slope Elevation
02 LOC-ILS IPAS 109.90 MHz 18 nm / 33 km 9.91° / 15.64 ° - 3,162 ft / 964 m (AMSL)
02 GS IPAS 109.90 MHz 10 nm / 19 km 9.91° / 15.64 ° 3.00° 3,162 ft / 964 m (AMSL)
02 MM MM - - 9.91° / 15.64 ° - 3,156 ft / 962 m (AMSL)

Popular Alternatives